createdAt,value
2023-04-21T00:01:59.306Z,53.76
2023-04-21T00:04:26.751Z,53.82
2023-04-21T00:06:54.616Z,53.75
2023-04-21T00:09:22.381Z,54.15
2023-04-21T00:11:49.372Z,54.13
2023-04-21T00:14:16.355Z,54.68
2023-04-21T00:16:43.335Z,54.76
2023-04-21T00:19:10.586Z,54.20
2023-04-21T00:21:37.717Z,54.65
2023-04-21T00:24:05.462Z,55.11
2023-04-21T00:26:32.452Z,55.11
2023-04-21T00:28:59.438Z,54.92
2023-04-21T00:31:26.483Z,55.16
2023-04-21T00:33:54.043Z,55.28
2023-04-21T00:36:21.207Z,55.30
2023-04-21T00:38:48.175Z,55.78
2023-04-21T00:41:15.168Z,55.69
2023-04-21T00:44:05.465Z,56.30
2023-04-21T00:46:34.216Z,55.74
2023-04-21T00:49:06.282Z,55.93
2023-04-21T00:51:35.386Z,55.62
2023-04-21T00:54:07.677Z,56.30
2023-04-21T00:56:36.709Z,56.58
2023-04-21T00:59:04.310Z,56.42
2023-04-21T01:01:36.579Z,56.62
2023-04-21T01:04:05.358Z,57.13
2023-04-21T01:06:36.715Z,56.24
2023-04-21T01:09:06.769Z,56.19
2023-04-21T01:11:34.467Z,56.35
2023-04-21T01:14:01.505Z,56.74
2023-04-21T01:16:29.677Z,56.77
2023-04-21T01:18:57.193Z,56.40
2023-04-21T01:21:24.193Z,57.35
2023-04-21T01:23:51.557Z,57.64
2023-04-21T01:26:21.691Z,57.93
2023-04-21T01:28:49.093Z,57.21
2023-04-21T01:31:17.663Z,57.50
2023-04-21T01:33:45.679Z,58.12
2023-04-21T01:36:12.935Z,57.78
2023-04-21T01:38:43.148Z,58.00
2023-04-21T01:41:10.876Z,57.99
2023-04-21T01:43:38.603Z,58.09
2023-04-21T01:46:07.269Z,58.40
2023-04-21T01:48:34.453Z,58.41
2023-04-21T01:51:01.438Z,58.41
2023-04-21T01:53:28.492Z,58.13
2023-04-21T01:55:56.536Z,58.35
2023-04-21T01:58:23.540Z,58.38
2023-04-21T02:00:50.563Z,58.71
2023-04-21T02:03:17.726Z,58.54
2023-04-21T02:05:44.916Z,58.76
2023-04-21T02:08:11.950Z,58.91
2023-04-21T02:10:38.993Z,58.60
2023-04-21T02:13:06.053Z,59.09
2023-04-21T02:15:33.683Z,59.25
2023-04-21T02:18:00.779Z,59.29
2023-04-21T02:20:27.978Z,59.00
2023-04-21T02:22:54.949Z,58.84
2023-04-21T02:25:21.949Z,58.98
2023-04-21T02:27:48.937Z,59.70
2023-04-21T02:30:16.450Z,59.34
2023-04-21T02:32:43.713Z,59.40
2023-04-21T02:35:10.989Z,59.24
2023-04-21T02:37:38.061Z,59.54
2023-04-21T02:40:06.669Z,59.60
2023-04-21T02:42:34.944Z,59.69
2023-04-21T02:45:02.107Z,59.40
2023-04-21T02:47:29.212Z,59.53
2023-04-21T02:49:56.248Z,59.89
2023-04-21T02:52:23.278Z,59.51
2023-04-21T02:54:50.504Z,59.24
2023-04-21T02:57:17.498Z,59.72
2023-04-21T02:59:44.532Z,59.88
2023-04-21T03:02:11.634Z,60.12
2023-04-21T03:04:39.428Z,60.33
2023-04-21T03:07:11.369Z,60.45
2023-04-21T03:09:38.380Z,60.35
2023-04-21T03:12:05.517Z,60.35
2023-04-21T03:14:32.530Z,60.46
2023-04-21T03:16:59.615Z,60.30
2023-04-21T03:19:26.682Z,59.87
2023-04-21T03:21:53.637Z,59.79
2023-04-21T03:24:21.496Z,59.73
2023-04-21T03:26:48.477Z,60.25
2023-04-21T03:29:15.586Z,60.40
2023-04-21T03:31:42.744Z,59.72
2023-04-21T03:34:09.763Z,59.54
2023-04-21T03:36:36.759Z,59.83
2023-04-21T03:39:18.824Z,59.84
2023-04-21T03:41:47.140Z,59.72
2023-04-21T03:44:14.126Z,59.20
2023-04-21T03:46:41.111Z,59.38
2023-04-21T03:49:08.140Z,59.31
2023-04-21T03:51:35.070Z,58.44
2023-04-21T03:54:02.074Z,58.81
2023-04-21T03:56:29.064Z,57.65
2023-04-21T03:58:56.146Z,55.33
2023-04-21T04:01:23.186Z,51.78
2023-04-21T04:03:50.960Z,49.76
2023-04-21T04:06:18.277Z,47.22
2023-04-21T04:08:45.278Z,45.98
2023-04-21T04:11:12.250Z,43.76
2023-04-21T04:13:39.354Z,43.00
2023-04-21T04:16:07.073Z,42.41
2023-04-21T04:18:34.107Z,39.76
2023-04-21T04:21:07.547Z,38.00
2023-04-21T04:23:35.504Z,36.03
2023-04-21T04:26:05.615Z,34.67
2023-04-21T04:28:33.702Z,33.20
2023-04-21T04:31:01.111Z,30.38
2023-04-21T04:33:28.081Z,29.92
2023-04-21T04:35:55.098Z,29.31
2023-04-21T04:38:23.139Z,27.62
2023-04-21T04:40:58.897Z,26.88
2023-04-21T04:43:25.857Z,26.05
2023-04-21T04:45:53.398Z,27.02
2023-04-21T04:48:20.476Z,25.74
2023-04-21T04:50:47.612Z,26.15
2023-04-21T04:53:14.696Z,25.33
2023-04-21T04:55:41.682Z,25.09
2023-04-21T04:58:08.677Z,24.21
2023-04-21T05:00:37.099Z,24.34
2023-04-21T05:03:04.434Z,23.96
2023-04-21T05:05:31.645Z,21.87
2023-04-21T05:07:58.703Z,22.29
2023-04-21T05:10:25.814Z,20.65
2023-04-21T05:12:52.831Z,21.71
2023-04-21T05:15:19.900Z,21.50
2023-04-21T05:17:46.899Z,22.04
2023-04-21T05:20:15.021Z,21.67
2023-04-21T05:22:42.148Z,21.25
2023-04-21T05:25:15.877Z,21.04
2023-04-21T05:27:43.625Z,20.70
2023-04-21T05:30:11.317Z,20.62
2023-04-21T05:32:39.295Z,19.49
2023-04-21T05:35:07.001Z,18.12
2023-04-21T05:37:34.044Z,18.02
2023-04-21T05:40:01.113Z,18.06
2023-04-21T05:42:28.282Z,16.96
2023-04-21T05:44:55.345Z,16.76
2023-04-21T05:47:22.456Z,16.98
2023-04-21T05:49:53.779Z,16.59
2023-04-21T05:52:23.860Z,16.33
2023-04-21T05:54:50.966Z,15.61
2023-04-21T05:57:18.026Z,15.30
2023-04-21T05:59:45.140Z,15.71
2023-04-21T06:02:12.563Z,15.63
2023-04-21T06:04:39.933Z,16.19
2023-04-21T06:07:09.146Z,15.34
2023-04-21T06:09:36.839Z,14.99
2023-04-21T06:12:04.384Z,15.47
2023-04-21T06:14:31.511Z,15.01
2023-04-21T06:16:58.978Z,14.27
2023-04-21T06:19:26.083Z,15.93
2023-04-21T06:21:53.143Z,15.45
2023-04-21T06:24:25.228Z,15.54
2023-04-21T06:26:53.485Z,15.02
2023-04-21T06:29:21.078Z,15.86
2023-04-21T06:31:48.379Z,15.54
2023-04-21T06:34:15.972Z,15.13
2023-04-21T06:36:43.005Z,14.45
2023-04-21T06:39:09.991Z,14.63
2023-04-21T06:41:37.119Z,14.12
2023-04-21T06:44:04.179Z,13.05
2023-04-21T06:46:31.415Z,13.62
2023-04-21T06:48:58.671Z,12.89
2023-04-21T06:51:25.679Z,13.87
2023-04-21T06:53:52.679Z,14.06
2023-04-21T06:56:19.642Z,12.41
2023-04-21T06:58:47.102Z,12.55
2023-04-21T07:01:14.135Z,11.68
2023-04-21T07:03:41.450Z,12.21
2023-04-21T07:06:08.796Z,12.09
2023-04-21T07:08:35.919Z,13.59
2023-04-21T07:11:03.122Z,12.70
2023-04-21T07:13:30.433Z,13.41
2023-04-21T07:15:57.558Z,13.54
2023-04-21T07:18:24.570Z,14.97
2023-04-21T07:20:51.652Z,15.13
2023-04-21T07:23:18.982Z,14.94
2023-04-21T07:25:46.024Z,15.57
2023-04-21T07:28:15.176Z,16.85
2023-04-21T07:30:42.321Z,16.80
2023-04-21T07:33:09.567Z,16.17
2023-04-21T07:35:36.635Z,16.15
2023-04-21T07:38:03.836Z,15.51
2023-04-21T07:40:31.264Z,15.56
2023-04-21T07:42:58.255Z,15.65
2023-04-21T07:45:26.471Z,15.45
2023-04-21T07:47:53.592Z,15.68
2023-04-21T07:50:20.623Z,15.71
2023-04-21T07:52:48.210Z,15.18
2023-04-21T07:55:15.683Z,15.57
2023-04-21T07:57:42.762Z,15.19
2023-04-21T08:00:10.899Z,15.93
2023-04-21T08:02:38.015Z,16.15
2023-04-21T08:05:05.749Z,16.45
2023-04-21T08:07:32.898Z,16.89
2023-04-21T08:10:00.321Z,16.57
2023-04-21T08:12:27.543Z,17.59
2023-04-21T08:14:57.317Z,18.21
2023-04-21T08:17:24.434Z,18.26
2023-04-21T08:19:52.158Z,17.30
2023-04-21T08:22:19.195Z,16.91
2023-04-21T08:24:46.214Z,15.95
2023-04-21T08:27:13.325Z,17.67
2023-04-21T08:29:40.365Z,17.73
2023-04-21T08:32:07.652Z,17.19
2023-04-21T08:34:35.075Z,17.98
2023-04-21T08:37:02.170Z,18.17
2023-04-21T08:39:30.568Z,17.63
2023-04-21T08:41:59.172Z,18.26
2023-04-21T08:44:26.704Z,18.43
2023-04-21T08:46:55.980Z,18.77
2023-04-21T08:49:24.368Z,19.15
2023-04-21T08:51:51.423Z,18.48
2023-04-21T08:54:18.506Z,18.58
2023-04-21T08:56:45.564Z,19.14
2023-04-21T08:59:12.537Z,18.15
2023-04-21T09:02:12.105Z,18.49
2023-04-21T09:04:45.141Z,19.13
2023-04-21T09:07:29.770Z,18.80
2023-04-21T09:09:58.231Z,19.00
2023-04-21T09:12:25.312Z,19.87
2023-04-21T09:14:52.358Z,19.50
2023-04-21T09:17:27.440Z,19.52
2023-04-21T09:19:54.473Z,19.81
2023-04-21T09:22:26.645Z,20.06
2023-04-21T09:25:02.702Z,19.94
2023-04-21T09:27:29.797Z,18.92
2023-04-21T09:30:04.598Z,19.60
2023-04-21T09:32:38.129Z,19.95
2023-04-21T09:35:09.764Z,20.11
2023-04-21T09:37:38.143Z,19.89
2023-04-21T09:40:06.608Z,19.54
2023-04-21T09:42:37.845Z,20.21
2023-04-21T09:45:28.857Z,19.51
2023-04-21T09:48:00.793Z,21.11
2023-04-21T09:53:04.066Z,19.47
2023-04-21T09:55:33.432Z,20.00
2023-04-21T09:58:02.019Z,19.26
2023-04-21T10:00:31.123Z,19.80
2023-04-21T10:03:00.910Z,19.92
2023-04-21T10:05:29.439Z,18.87
2023-04-21T10:07:57.954Z,18.98
2023-04-21T10:10:34.819Z,19.32
2023-04-21T10:13:02.793Z,20.27
2023-04-21T10:15:41.527Z,19.94
2023-04-21T10:18:29.320Z,20.58
2023-04-21T10:21:04.975Z,19.81
2023-04-21T10:23:42.035Z,20.06
2023-04-21T10:26:32.576Z,20.46
2023-04-21T10:29:06.047Z,18.46
2023-04-21T10:31:36.619Z,18.64
2023-04-21T10:34:09.245Z,18.69
2023-04-21T10:36:44.117Z,18.90
2023-04-21T10:39:16.459Z,19.61
2023-04-21T10:41:46.340Z,19.10
2023-04-21T10:44:16.056Z,19.69
2023-04-21T10:46:52.232Z,19.30
2023-04-21T10:49:30.139Z,20.29
2023-04-21T10:52:00.302Z,20.01
2023-04-21T10:54:52.573Z,20.18
2023-04-21T10:57:20.708Z,20.12
2023-04-21T10:59:49.644Z,19.61
2023-04-21T11:02:19.342Z,19.85
2023-04-21T11:04:52.664Z,20.06
2023-04-21T11:07:24.594Z,19.17
2023-04-21T11:10:07.401Z,18.62
2023-04-21T11:12:41.450Z,19.09
2023-04-21T11:15:11.348Z,19.25
2023-04-21T11:17:39.920Z,19.42
2023-04-21T11:20:08.528Z,19.93
2023-04-21T11:22:37.805Z,19.44
2023-04-21T11:25:05.601Z,19.42
2023-04-21T11:27:32.700Z,19.20
2023-04-21T11:30:03.480Z,19.93
2023-04-21T11:32:31.320Z,19.92
2023-04-21T11:34:58.445Z,20.30
2023-04-21T11:37:27.932Z,20.47
2023-04-21T11:40:00.416Z,21.26
2023-04-21T11:42:28.565Z,20.26
2023-04-21T11:44:56.735Z,20.57
2023-04-21T11:47:27.174Z,20.63
2023-04-21T11:50:01.017Z,21.12
2023-04-21T11:52:33.194Z,21.74
2023-04-21T11:55:06.234Z,19.31
2023-04-21T11:57:34.259Z,21.17
2023-04-21T12:00:07.904Z,21.18
2023-04-21T12:02:35.148Z,20.72
2023-04-21T12:05:13.455Z,21.30
2023-04-21T12:07:52.026Z,21.64
2023-04-21T12:10:21.214Z,21.28
2023-04-21T12:12:49.084Z,21.64
2023-04-21T12:15:23.094Z,21.63
2023-04-21T12:17:55.450Z,22.42
2023-04-21T12:20:26.498Z,21.93
2023-04-21T12:22:53.572Z,21.04
2023-04-21T12:25:20.716Z,21.39
2023-04-21T12:27:58.452Z,21.40
2023-04-21T12:30:25.620Z,21.69
2023-04-21T12:32:54.456Z,21.54
2023-04-21T12:35:22.782Z,21.87
2023-04-21T12:37:49.770Z,22.22
2023-04-21T12:40:17.051Z,21.88
2023-04-21T12:42:43.980Z,22.49
2023-04-21T12:45:11.632Z,21.81
2023-04-21T12:47:39.400Z,21.56
2023-04-21T12:50:07.593Z,21.86
2023-04-21T12:52:34.815Z,22.33
2023-04-21T12:55:01.904Z,22.45
2023-04-21T12:57:29.272Z,21.43
2023-04-21T12:59:56.246Z,21.52
2023-04-21T13:02:23.429Z,22.28
2023-04-21T13:04:50.703Z,22.76
2023-04-21T13:07:21.394Z,22.53
2023-04-21T13:09:48.538Z,22.97
2023-04-21T13:12:15.659Z,22.42
2023-04-21T13:14:42.850Z,22.33
2023-04-21T13:17:10.192Z,21.93
2023-04-21T13:19:37.405Z,22.70
2023-04-21T13:22:04.517Z,22.09
2023-04-21T13:24:31.658Z,21.99
2023-04-21T13:26:59.543Z,21.48
2023-04-21T13:29:30.378Z,22.88
2023-04-21T13:31:57.509Z,21.84
2023-04-21T13:34:24.747Z,21.87
2023-04-21T13:36:51.911Z,21.54
2023-04-21T13:39:19.013Z,22.28
2023-04-21T13:41:46.112Z,21.43
2023-04-21T13:44:13.172Z,22.14
2023-04-21T13:46:40.378Z,22.33
2023-04-21T13:49:07.679Z,22.34
2023-04-21T13:51:35.576Z,23.08
2023-04-21T13:54:02.784Z,23.55
2023-04-21T13:56:29.891Z,23.77
2023-04-21T13:58:57.126Z,23.00
2023-04-21T14:01:24.324Z,22.84
2023-04-21T14:03:51.837Z,23.35
2023-04-21T14:06:19.453Z,24.54
2023-04-21T14:08:46.591Z,24.09
2023-04-21T14:11:13.766Z,24.10
2023-04-21T14:13:48.055Z,23.74
2023-04-21T14:16:26.898Z,23.20
2023-04-21T14:18:53.990Z,23.35
2023-04-21T14:21:21.055Z,23.84
2023-04-21T14:23:48.277Z,23.57
2023-04-21T14:26:15.393Z,23.19
2023-04-21T14:28:42.606Z,24.33
2023-04-21T14:31:09.693Z,24.02
2023-04-21T14:33:36.926Z,23.91
2023-04-21T14:36:04.136Z,24.27
2023-04-21T14:38:31.220Z,23.68
2023-04-21T14:40:58.214Z,23.94
2023-04-21T14:43:25.295Z,23.01
2023-04-21T14:45:53.155Z,23.57
2023-04-21T14:48:21.353Z,23.84
2023-04-21T14:50:48.514Z,23.49
2023-04-21T14:53:15.704Z,23.46
2023-04-21T14:55:42.707Z,24.18
2023-04-21T14:58:09.738Z,23.88
2023-04-21T15:00:36.763Z,22.72
2023-04-21T15:03:04.029Z,23.98
2023-04-21T15:05:31.236Z,24.08
2023-04-21T15:07:58.229Z,24.72
2023-04-21T15:10:25.350Z,25.71
2023-04-21T15:12:52.494Z,26.79
2023-04-21T15:15:19.746Z,23.84
2023-04-21T15:17:46.789Z,24.80
2023-04-21T15:20:13.874Z,24.24
2023-04-21T15:22:41.507Z,30.22
2023-04-21T15:25:09.166Z,26.54
2023-04-21T15:27:36.955Z,24.26
2023-04-21T15:30:05.132Z,25.83
2023-04-21T15:32:32.239Z,25.32
2023-04-21T15:34:59.278Z,25.20
2023-04-21T15:37:26.332Z,26.42
2023-04-21T15:39:53.463Z,26.43
2023-04-21T15:42:20.722Z,26.00
2023-04-21T15:44:47.841Z,27.41
2023-04-21T15:47:17.034Z,26.26
2023-04-21T15:49:44.178Z,26.79
2023-04-21T15:52:11.328Z,26.61
2023-04-21T15:54:38.838Z,26.71
2023-04-21T15:57:06.366Z,26.86
2023-04-21T15:59:33.375Z,26.55
2023-04-21T16:02:00.565Z,26.21
2023-04-21T16:04:28.383Z,27.23
2023-04-21T16:06:56.208Z,27.36
2023-04-21T16:09:23.748Z,27.83
2023-04-21T16:11:51.441Z,26.50
2023-04-21T16:14:18.980Z,29.33
2023-04-21T16:16:46.198Z,27.48
2023-04-21T16:19:13.418Z,26.69
2023-04-21T16:21:40.843Z,27.54
2023-04-21T16:24:08.826Z,27.14
2023-04-21T16:26:36.734Z,28.21
2023-04-21T16:29:03.982Z,27.78
2023-04-21T16:31:31.556Z,28.51
2023-04-21T16:34:00.345Z,28.34
2023-04-21T16:36:28.474Z,28.21
2023-04-21T16:38:56.256Z,27.58
2023-04-21T16:41:23.653Z,27.59
2023-04-21T16:43:50.860Z,28.62
2023-04-21T16:46:18.412Z,28.23
2023-04-21T16:48:46.034Z,27.62
2023-04-21T16:51:13.164Z,28.02
2023-04-21T16:53:42.096Z,28.95
2023-04-21T16:56:09.772Z,27.86
2023-04-21T16:58:37.744Z,27.89
2023-04-21T17:01:07.521Z,28.04
2023-04-21T17:03:35.007Z,29.18
2023-04-21T17:06:04.647Z,29.38
2023-04-21T17:08:31.723Z,28.70
2023-04-21T17:11:00.009Z,29.08
2023-04-21T17:13:27.074Z,29.92
2023-04-21T17:15:54.227Z,31.30
2023-04-21T17:18:21.414Z,29.97
2023-04-21T17:20:48.545Z,30.94
2023-04-21T17:23:15.589Z,30.29
2023-04-21T17:25:42.739Z,29.57
2023-04-21T17:28:09.836Z,29.69
2023-04-21T17:30:36.970Z,31.50
2023-04-21T17:33:15.249Z,32.21
2023-04-21T17:35:59.920Z,32.38
2023-04-21T17:38:29.295Z,31.44
2023-04-21T17:40:56.422Z,32.04
2023-04-21T17:43:23.529Z,31.26
2023-04-21T17:45:51.637Z,34.18
2023-04-21T17:48:19.137Z,32.92
2023-04-21T17:50:46.220Z,30.81
2023-04-21T17:53:13.205Z,32.64
2023-04-21T17:55:40.396Z,31.62
2023-04-21T17:58:10.037Z,32.70
2023-04-21T18:00:38.711Z,31.45
2023-04-21T18:03:05.982Z,32.28
2023-04-21T18:05:33.781Z,31.37
2023-04-21T18:08:00.937Z,31.97
2023-04-21T18:10:29.807Z,32.28
2023-04-21T18:12:57.837Z,33.93
2023-04-21T18:15:25.148Z,33.60
2023-04-21T18:17:53.300Z,34.26
2023-04-21T18:20:20.761Z,34.10
2023-04-21T18:22:49.092Z,35.35
2023-04-21T18:25:20.156Z,35.35
2023-04-21T18:27:51.513Z,33.62
2023-04-21T18:30:18.564Z,35.31
2023-04-21T18:32:45.717Z,34.88
2023-04-21T18:35:12.776Z,35.11
2023-04-21T18:37:39.765Z,36.59
2023-04-21T18:40:07.759Z,35.34
2023-04-21T18:42:34.833Z,36.78
2023-04-21T18:45:04.257Z,35.86
2023-04-21T18:47:31.928Z,36.07
2023-04-21T18:49:59.014Z,37.45
2023-04-21T18:52:26.077Z,37.24
2023-04-21T18:54:53.082Z,37.27
2023-04-21T18:57:20.091Z,37.81
2023-04-21T18:59:47.156Z,36.83
2023-04-21T19:02:14.422Z,37.23
2023-04-21T19:04:43.850Z,38.24
2023-04-21T19:07:11.528Z,36.94
2023-04-21T19:09:38.721Z,37.04
2023-04-21T19:12:05.892Z,36.77
2023-04-21T19:14:42.452Z,37.68
2023-04-21T19:17:13.141Z,37.07
2023-04-21T19:19:40.857Z,37.36
2023-04-21T19:22:07.989Z,37.80
2023-04-21T19:24:35.457Z,38.47
2023-04-21T19:27:03.782Z,38.32
2023-04-21T19:29:31.804Z,38.64
2023-04-21T19:31:59.432Z,38.88
2023-04-21T19:34:26.918Z,38.83
2023-04-21T19:36:53.993Z,39.33
2023-04-21T19:39:21.040Z,39.61
2023-04-21T19:41:48.065Z,39.65
2023-04-21T19:44:15.047Z,39.51
2023-04-21T19:46:43.129Z,39.44
2023-04-21T19:49:14.140Z,39.83
2023-04-21T19:51:41.473Z,40.52
2023-04-21T19:54:12.157Z,41.43
2023-04-21T19:56:40.577Z,41.81
2023-04-21T19:59:07.884Z,41.56
2023-04-21T20:01:35.100Z,42.12
2023-04-21T20:04:03.750Z,41.99
2023-04-21T20:06:32.094Z,42.50
2023-04-21T20:08:59.124Z,42.24
2023-04-21T20:11:28.953Z,41.99
2023-04-21T20:13:56.329Z,41.44
2023-04-21T20:16:24.074Z,40.61
2023-04-21T20:18:51.129Z,40.76
2023-04-21T20:21:18.246Z,40.80
2023-04-21T20:23:45.300Z,40.77
2023-04-21T20:26:13.280Z,40.68
2023-04-21T20:28:40.307Z,41.41
2023-04-21T20:31:07.580Z,41.10
2023-04-21T20:33:35.030Z,40.97
2023-04-21T20:36:07.193Z,40.96
2023-04-21T20:38:35.433Z,41.10
2023-04-21T20:41:03.355Z,40.88
2023-04-21T20:43:33.341Z,40.75
2023-04-21T20:46:04.316Z,40.85
2023-04-21T20:48:31.468Z,40.61
2023-04-21T20:50:58.504Z,40.51
2023-04-21T20:53:26.181Z,41.13
2023-04-21T20:55:53.265Z,41.20
2023-04-21T20:58:20.390Z,41.17
2023-04-21T21:00:47.453Z,41.29
2023-04-21T21:03:14.940Z,41.13
2023-04-21T21:05:42.223Z,41.92
2023-04-21T21:08:09.449Z,41.77
2023-04-21T21:10:36.532Z,42.00
2023-04-21T21:13:03.672Z,41.85
2023-04-21T21:15:30.955Z,42.12
2023-04-21T21:17:58.439Z,41.68
2023-04-21T21:20:25.832Z,41.71
2023-04-21T21:22:52.888Z,41.93
2023-04-21T21:25:20.031Z,42.24
2023-04-21T21:27:47.300Z,42.15
2023-04-21T21:30:14.645Z,42.40
2023-04-21T21:32:41.947Z,42.58
2023-04-21T21:35:10.653Z,42.46
2023-04-21T21:37:38.297Z,42.40
2023-04-21T21:40:06.965Z,42.57
2023-04-21T21:42:34.151Z,42.82
2023-04-21T21:45:01.320Z,43.49
2023-04-21T21:47:28.698Z,44.21
2023-04-21T21:49:57.848Z,44.05
2023-04-21T21:52:25.312Z,44.64
2023-04-21T21:54:52.709Z,45.61
2023-04-21T21:57:19.709Z,45.76
2023-04-21T21:59:47.127Z,45.34
2023-04-21T22:02:14.991Z,45.62
2023-04-21T22:04:42.994Z,45.69
2023-04-21T22:07:10.066Z,46.14
2023-04-21T22:09:38.545Z,46.30
2023-04-21T22:12:07.325Z,46.71
2023-04-21T22:14:34.633Z,47.04
2023-04-21T22:17:02.956Z,46.89
2023-04-21T22:19:31.156Z,47.25
2023-04-21T22:21:58.419Z,47.73
2023-04-21T22:24:25.830Z,47.61
2023-04-21T22:26:53.285Z,48.00
2023-04-21T22:29:20.293Z,48.53
2023-04-21T22:31:48.131Z,48.23
2023-04-21T22:34:16.785Z,48.11
2023-04-21T22:36:44.116Z,48.24
2023-04-21T22:39:12.773Z,49.02
2023-04-21T22:41:39.828Z,48.86
2023-04-21T22:44:06.826Z,49.41
2023-04-21T22:46:33.982Z,50.02
2023-04-21T22:49:03.183Z,50.14
2023-04-21T22:51:32.456Z,50.58
2023-04-21T22:54:00.429Z,50.62
2023-04-21T22:56:28.572Z,50.60
2023-04-21T22:58:55.631Z,50.85
2023-04-21T23:01:23.225Z,50.46
2023-04-21T23:03:50.774Z,50.92
2023-04-21T23:06:17.862Z,50.68
2023-04-21T23:08:44.922Z,50.72
2023-04-21T23:11:12.115Z,51.26
2023-04-21T23:13:39.986Z,51.12
2023-04-21T23:16:07.200Z,51.27
2023-04-21T23:18:34.235Z,51.51
2023-04-21T23:21:01.492Z,51.60
2023-04-21T23:23:28.529Z,52.12
2023-04-21T23:25:55.672Z,52.87
2023-04-21T23:28:23.888Z,53.01
2023-04-21T23:30:50.904Z,52.85
2023-04-21T23:33:17.990Z,52.18
2023-04-21T23:35:45.137Z,52.48
2023-04-21T23:38:12.191Z,52.47
2023-04-21T23:40:39.252Z,52.75
2023-04-21T23:43:07.090Z,53.36
2023-04-21T23:45:34.191Z,53.62
2023-04-21T23:48:01.446Z,53.20
2023-04-21T23:50:28.772Z,53.81
2023-04-21T23:52:56.052Z,53.40
2023-04-21T23:55:23.160Z,53.88
2023-04-21T23:57:50.178Z,54.08
